Time;durP1;ratioP1;P1;durP2;ratioP2;P2;SDS_P1;SDS_P2;PMS_P1;PMS_P2;Temp;Humidity;BMP_temperature;BMP_pressure;BME280_temperature;BME280_humidity;BME280_pressure;Samples;Min_cycle;Max_cycle;Signal;HPM_P1;HPM_P2
2022/12/08 00:02:46;;;;;;;1.63;1.50;;;;;;;;;;6360189;28;20510;-70
2022/12/08 00:09:24;;;;;;;1.57;1.53;;;;;;;;;;6359641;28;20321;-69
2022/12/08 00:12:29;;;;;;;1.53;1.53;;;;;;;;;;6360191;28;20300;-70
2022/12/08 00:15:35;;;;;;;1.43;1.33;;;;;;;;;;6361466;28;20479;-69
2022/12/08 00:18:40;;;;;;;2.87;1.40;;;;;;;;;;6364703;28;20392;-69
2022/12/08 00:21:46;;;;;;;1.40;1.40;;;;;;;;;;6365561;28;20273;-69
2022/12/08 00:24:51;;;;;;;2.63;1.80;;;;;;;;;;6364456;28;20300;-68
2022/12/08 00:27:55;;;;;;;4.27;1.87;;;;;;;;;;6364507;28;20296;-70
2022/12/08 00:31:07;;;;;;;1.70;1.70;;;;;;;;;;6365036;28;20267;-70
2022/12/08 00:34:13;;;;;;;1.97;1.77;;;;;;;;;;6364371;28;20379;-70
2022/12/08 00:37:18;;;;;;;1.80;1.80;;;;;;;;;;6364150;28;20290;-70
2022/12/08 00:40:23;;;;;;;2.37;1.77;;;;;;;;;;6364965;28;20273;-70
2022/12/08 00:43:28;;;;;;;1.40;1.40;;;;;;;;;;6364183;28;20294;-69
2022/12/08 00:46:34;;;;;;;1.60;1.50;;;;;;;;;;6364889;28;20266;-70
2022/12/08 00:49:40;;;;;;;2.93;1.60;;;;;;;;;;6364486;28;20322;-69
2022/12/08 00:52:45;;;;;;;1.80;1.70;;;;;;;;;;6364283;28;20299;-69
2022/12/08 00:55:49;;;;;;;1.37;1.37;;;;;;;;;;6364125;28;20291;-70
2022/12/08 00:58:54;;;;;;;1.33;1.33;;;;;;;;;;6364103;28;20291;-70
2022/12/08 01:02:01;;;;;;;1.73;1.73;;;;;;;;;;6364248;28;20276;-69
2022/12/08 01:05:06;;;;;;;2.23;1.67;;;;;;;;;;6363450;28;20433;-69
2022/12/08 01:08:13;;;;;;;1.60;1.47;;;;;;;;;;6354898;28;20295;-69
2022/12/08 01:11:20;;;;;;;1.30;1.30;;;;;;;;;;6364574;28;20287;-68
2022/12/08 01:14:24;;;;;;;1.53;1.53;;;;;;;;;;6363722;28;20298;-69
2022/12/08 01:17:31;;;;;;;1.60;1.60;;;;;;;;;;6363329;28;20465;-69
2022/12/08 01:20:36;;;;;;;1.60;1.60;;;;;;;;;;6363552;28;20274;-69
2022/12/08 01:23:41;;;;;;;2.47;1.40;;;;;;;;;;6362936;28;20300;-69
2022/12/08 01:26:46;;;;;;;1.50;1.50;;;;;;;;;;6363026;28;20349;-70
2022/12/08 01:29:51;;;;;;;2.03;1.57;;;;;;;;;;6363246;28;20291;-69
2022/12/08 01:32:58;;;;;;;1.47;1.47;;;;;;;;;;6363058;28;20299;-69
2022/12/08 01:36:04;;;;;;;1.47;1.47;;;;;;;;;;6363718;28;20461;-69
2022/12/08 01:39:13;;;;;;;1.80;1.50;;;;;;;;;;6363019;28;20298;-69
2022/12/08 01:42:23;;;;;;;1.90;1.50;;;;;;;;;;6363043;28;20268;-69
2022/12/08 01:45:29;;;;;;;1.97;1.33;;;;;;;;;;6363603;28;20276;-69
2022/12/08 01:48:36;;;;;;;2.93;1.63;;;;;;;;;;6362986;28;20311;-69
2022/12/08 01:51:44;;;;;;;2.40;1.70;;;;;;;;;;6363249;28;20273;-68
2022/12/08 01:54:53;;;;;;;1.90;1.50;;;;;;;;;;6362354;28;20296;-69
2022/12/08 01:58:03;;;;;;;1.73;1.63;;;;;;;;;;6362445;28;20304;-69
2022/12/08 02:01:08;;;;;;;1.87;1.50;;;;;;;;;;6362772;28;20455;-69
2022/12/08 02:04:15;;;;;;;1.57;1.57;;;;;;;;;;6362532;28;20494;-69
2022/12/08 02:07:19;;;;;;;2.53;1.50;;;;;;;;;;6355098;28;20273;-69
2022/12/08 02:10:27;;;;;;;1.63;1.60;;;;;;;;;;6354262;28;20288;-69
2022/12/08 02:13:32;;;;;;;2.20;1.70;;;;;;;;;;6362537;28;20292;-69
2022/12/08 02:16:42;;;;;;;1.63;1.53;;;;;;;;;;6362947;28;20580;-69
2022/12/08 02:20:08;;;;;;;1.20;1.20;;;;;;;;;;6362075;28;20292;-69
2022/12/08 02:23:24;;;;;;;1.60;1.50;;;;;;;;;;6362268;28;20311;-69
2022/12/08 02:27:11;;;;;;;1.37;1.30;;;;;;;;;;6362609;28;20559;-68
2022/12/08 02:30:20;;;;;;;2.67;1.40;;;;;;;;;;6341346;28;20443;-69
2022/12/08 02:33:47;;;;;;;1.30;1.30;;;;;;;;;;6361833;28;20465;-69
2022/12/08 02:36:57;;;;;;;1.20;1.20;;;;;;;;;;6361991;28;20288;-69
2022/12/08 02:40:07;;;;;;;1.57;1.30;;;;;;;;;;6343660;28;20303;-70
2022/12/08 02:43:17;;;;;;;1.40;1.40;;;;;;;;;;6361637;28;20299;-70
2022/12/08 02:46:24;;;;;;;1.47;1.40;;;;;;;;;;6361746;28;20275;-70
2022/12/08 02:49:31;;;;;;;1.60;1.33;;;;;;;;;;6361441;28;20293;-70
2022/12/08 02:52:44;;;;;;;1.70;1.50;;;;;;;;;;6361543;28;20286;-70
2022/12/08 02:55:57;;;;;;;1.53;1.53;;;;;;;;;;6361649;28;20449;-70
2022/12/08 02:59:14;;;;;;;1.17;1.17;;;;;;;;;;6361368;28;20466;-70
2022/12/08 03:02:35;;;;;;;1.20;1.20;;;;;;;;;;6361179;28;20268;-70
2022/12/08 03:05:59;;;;;;;1.10;1.10;;;;;;;;;;6361686;28;20264;-69
2022/12/08 03:09:08;;;;;;;1.43;1.43;;;;;;;;;;6360761;28;20481;-70
2022/12/08 03:12:16;;;;;;;1.67;1.57;;;;;;;;;;6360933;28;20442;-70
2022/12/08 03:15:22;;;;;;;1.13;1.13;;;;;;;;;;6361733;28;20265;-70
2022/12/08 03:18:31;;;;;;;1.50;1.10;;;;;;;;;;6360400;28;20311;-70
2022/12/08 03:21:38;;;;;;;1.23;1.23;;;;;;;;;;6361370;28;20269;-70
2022/12/08 03:24:44;;;;;;;1.60;1.23;;;;;;;;;;6360553;28;20294;-70
2022/12/08 03:27:50;;;;;;;1.20;1.20;;;;;;;;;;6360807;28;20292;-70
2022/12/08 03:30:58;;;;;;;1.23;1.23;;;;;;;;;;6361364;28;20262;-70
2022/12/08 03:34:03;;;;;;;1.37;1.37;;;;;;;;;;6360592;28;20295;-70
2022/12/08 03:37:11;;;;;;;1.17;1.17;;;;;;;;;;6360429;28;20299;-70
2022/12/08 03:40:18;;;;;;;1.40;1.30;;;;;;;;;;6361267;28;20288;-70
2022/12/08 03:43:23;;;;;;;1.30;1.30;;;;;;;;;;6360669;28;20299;-70
2022/12/08 03:46:29;;;;;;;1.40;1.30;;;;;;;;;;6360729;28;20267;-70
2022/12/08 03:49:34;;;;;;;1.50;1.50;;;;;;;;;;6360197;28;20300;-69
2022/12/08 03:52:40;;;;;;;1.23;1.23;;;;;;;;;;6364919;28;20378;-69
2022/12/08 03:55:45;;;;;;;1.30;1.30;;;;;;;;;;6365712;28;20555;-70
2022/12/08 03:58:50;;;;;;;1.33;1.33;;;;;;;;;;6365734;28;20294;-70
2022/12/08 04:01:55;;;;;;;1.10;1.10;;;;;;;;;;6363691;28;20260;-70
2022/12/08 04:05:00;;;;;;;1.73;1.73;;;;;;;;;;6364236;28;20295;-70
2022/12/08 04:08:07;;;;;;;1.30;1.30;;;;;;;;;;6365074;28;20292;-70
2022/12/08 04:11:12;;;;;;;1.47;1.40;;;;;;;;;;6365015;28;20286;-70
2022/12/08 04:14:17;;;;;;;1.57;1.47;;;;;;;;;;6364933;28;20579;-69
2022/12/08 04:17:22;;;;;;;1.37;1.37;;;;;;;;;;6364726;28;20575;-69
2022/12/08 04:20:27;;;;;;;1.40;1.40;;;;;;;;;;6365348;28;20263;-69
2022/12/08 04:23:33;;;;;;;1.37;1.30;;;;;;;;;;6365077;28;20294;-70
2022/12/08 04:26:38;;;;;;;1.27;1.27;;;;;;;;;;6365707;28;20266;-69
2022/12/08 04:29:43;;;;;;;1.43;1.30;;;;;;;;;;6364758;28;20294;-69
2022/12/08 04:32:48;;;;;;;1.60;1.50;;;;;;;;;;6364676;28;20291;-70
2022/12/08 04:35:53;;;;;;;1.27;1.27;;;;;;;;;;6365005;28;20256;-68
2022/12/08 04:38:59;;;;;;;1.20;1.20;;;;;;;;;;6364602;28;20299;-68
2022/12/08 04:42:04;;;;;;;4.67;1.30;;;;;;;;;;6364435;28;20271;-70
2022/12/08 04:45:10;;;;;;;1.20;1.20;;;;;;;;;;6364570;28;20265;-69
2022/12/08 04:48:15;;;;;;;1.13;1.13;;;;;;;;;;6364610;28;20322;-69
2022/12/08 04:51:21;;;;;;;1.10;1.10;;;;;;;;;;6365000;28;20267;-69
2022/12/08 04:54:27;;;;;;;1.43;1.33;;;;;;;;;;6364419;28;20300;-69
2022/12/08 04:57:32;;;;;;;1.50;1.50;;;;;;;;;;6364251;28;20311;-69
2022/12/08 05:00:37;;;;;;;1.83;1.50;;;;;;;;;;6360706;28;20276;-69
2022/12/08 05:03:42;;;;;;;2.20;1.23;;;;;;;;;;6338915;28;20294;-69
2022/12/08 05:06:47;;;;;;;1.30;1.30;;;;;;;;;;6339331;28;20276;-69
2022/12/08 05:09:53;;;;;;;3.50;1.50;;;;;;;;;;6338314;28;20295;-69
2022/12/08 05:12:58;;;;;;;1.40;1.40;;;;;;;;;;6339115;28;20292;-69
2022/12/08 05:16:04;;;;;;;1.40;1.40;;;;;;;;;;6339334;28;20272;-69
2022/12/08 05:19:11;;;;;;;1.40;1.30;;;;;;;;;;6338401;28;20519;-69
2022/12/08 05:22:16;;;;;;;1.40;1.40;;;;;;;;;;6338325;28;20276;-69
2022/12/08 05:25:22;;;;;;;1.40;1.30;;;;;;;;;;6338932;28;20272;-69
2022/12/08 05:28:28;;;;;;;1.33;1.33;;;;;;;;;;6338312;28;20308;-69
2022/12/08 05:31:46;;;;;;;1.40;1.40;;;;;;;;;;6338983;28;20272;-70
2022/12/08 05:34:51;;;;;;;2.00;1.27;;;;;;;;;;6338386;28;20294;-69
2022/12/08 05:37:55;;;;;;;1.60;1.50;;;;;;;;;;6337864;28;20382;-69
2022/12/08 05:41:02;;;;;;;1.60;1.60;;;;;;;;;;6337933;28;20268;-69
2022/12/08 05:44:09;;;;;;;1.40;1.40;;;;;;;;;;6337553;28;20291;-69
2022/12/08 05:47:14;;;;;;;4.83;1.63;;;;;;;;;;6337249;28;20266;-69
2022/12/08 05:50:18;;;;;;;1.50;1.50;;;;;;;;;;6338090;28;20275;-70
2022/12/08 05:53:24;;;;;;;3.13;1.67;;;;;;;;;;6337625;28;20296;-69
2022/12/08 05:56:30;;;;;;;1.73;1.63;;;;;;;;;;6337776;28;20276;-69
2022/12/08 05:59:36;;;;;;;1.73;1.70;;;;;;;;;;6337551;28;20296;-68
2022/12/08 06:02:41;;;;;;;1.70;1.70;;;;;;;;;;6337310;28;20285;-69
2022/12/08 06:05:47;;;;;;;1.47;1.47;;;;;;;;;;6338147;28;20271;-68
2022/12/08 06:08:52;;;;;;;1.60;1.53;;;;;;;;;;6336926;28;20295;-69
2022/12/08 06:11:59;;;;;;;1.63;1.53;;;;;;;;;;6337485;28;20284;-69
2022/12/08 06:15:04;;;;;;;1.80;1.80;;;;;;;;;;6336275;28;20269;-69
2022/12/08 06:18:10;;;;;;;1.73;1.73;;;;;;;;;;6336624;28;20592;-69
2022/12/08 06:21:16;;;;;;;1.60;1.50;;;;;;;;;;6337344;28;20273;-69
2022/12/08 06:24:21;;;;;;;2.03;1.60;;;;;;;;;;6336006;28;20294;-70
2022/12/08 06:27:27;;;;;;;1.50;1.50;;;;;;;;;;6337174;28;20312;-70
2022/12/08 06:30:32;;;;;;;1.73;1.63;;;;;;;;;;6337586;28;20272;-69
2022/12/08 06:33:38;;;;;;;2.10;1.70;;;;;;;;;;6337074;28;20291;-69
2022/12/08 06:36:42;;;;;;;1.90;1.80;;;;;;;;;;6337095;28;20297;-69
2022/12/08 06:39:47;;;;;;;1.60;1.60;;;;;;;;;;6336947;28;20454;-68
2022/12/08 06:42:54;;;;;;;1.67;1.67;;;;;;;;;;6336420;28;20292;-70
2022/12/08 06:45:59;;;;;;;1.60;1.60;;;;;;;;;;6337305;28;20272;-68
2022/12/08 06:49:04;;;;;;;1.70;1.70;;;;;;;;;;6336580;28;20304;-68
2022/12/08 06:52:10;;;;;;;2.00;1.90;;;;;;;;;;6336330;28;20277;-68
2022/12/08 06:55:15;;;;;;;2.07;1.93;;;;;;;;;;6337079;28;20272;-68
2022/12/08 06:58:42;;;;;;;1.97;1.80;;;;;;;;;;6335570;28;20296;-69
2022/12/08 07:01:52;;;;;;;1.70;1.70;;;;;;;;;;6336653;28;20268;-69
2022/12/08 07:04:57;;;;;;;2.03;1.90;;;;;;;;;;6336011;28;20295;-69
2022/12/08 07:08:02;;;;;;;1.50;1.50;;;;;;;;;;6336159;28;20591;-69
2022/12/08 07:11:08;;;;;;;2.27;2.10;;;;;;;;;;6335975;28;20467;-68
2022/12/08 07:14:14;;;;;;;2.27;2.07;;;;;;;;;;6335782;28;20304;-69
2022/12/08 07:17:19;;;;;;;2.93;2.00;;;;;;;;;;6335894;28;20267;-69
2022/12/08 07:20:24;;;;;;;1.70;1.60;;;;;;;;;;6336113;28;20286;-69
2022/12/08 07:23:29;;;;;;;4.33;1.97;;;;;;;;;;6335434;28;20292;-70
2022/12/08 07:26:34;;;;;;;3.13;1.70;;;;;;;;;;6335119;28;20267;-70
2022/12/08 07:29:40;;;;;;;1.70;1.70;;;;;;;;;;6335359;28;20303;-70
2022/12/08 07:32:46;;;;;;;2.13;2.00;;;;;;;;;;6336159;28;20288;-69
2022/12/08 07:35:55;;;;;;;2.53;1.97;;;;;;;;;;6335896;28;20267;-69
2022/12/08 07:39:00;;;;;;;1.77;1.67;;;;;;;;;;6335207;28;20377;-69
2022/12/08 07:42:05;;;;;;;1.50;1.47;;;;;;;;;;6335449;28;20457;-69
2022/12/08 07:45:12;;;;;;;4.20;1.70;;;;;;;;;;6336094;28;20263;-69
2022/12/08 07:48:17;;;;;;;8.07;1.50;;;;;;;;;;6335206;28;20324;-70
2022/12/08 07:51:23;;;;;;;3.20;1.70;;;;;;;;;;6335480;28;20271;-69
2022/12/08 07:54:28;;;;;;;2.17;1.60;;;;;;;;;;6335222;28;20471;-69
2022/12/08 07:57:33;;;;;;;1.60;1.60;;;;;;;;;;6335115;28;20287;-69
2022/12/08 08:00:40;;;;;;;1.63;1.63;;;;;;;;;;6335187;28;20293;-69
2022/12/08 08:03:45;;;;;;;5.80;2.23;;;;;;;;;;6335111;28;20487;-69
2022/12/08 08:06:50;;;;;;;1.87;1.70;;;;;;;;;;6334271;28;20275;-69
2022/12/08 08:09:54;;;;;;;1.70;1.60;;;;;;;;;;6346193;28;20589;-69
2022/12/08 08:13:00;;;;;;;2.10;2.00;;;;;;;;;;6360038;28;20306;-69
2022/12/08 08:16:08;;;;;;;1.77;1.67;;;;;;;;;;6360883;28;20264;-70
2022/12/08 08:19:13;;;;;;;1.90;1.77;;;;;;;;;;6360034;28;20293;-70
2022/12/08 08:22:19;;;;;;;1.83;1.73;;;;;;;;;;6359663;28;20275;-69
2022/12/08 08:25:24;;;;;;;1.50;1.50;;;;;;;;;;6360988;28;20498;-69
2022/12/08 08:28:30;;;;;;;1.97;1.50;;;;;;;;;;6359992;28;20291;-69
2022/12/08 08:31:36;;;;;;;1.57;1.57;;;;;;;;;;6360194;28;20274;-69
2022/12/08 08:34:42;;;;;;;1.60;1.60;;;;;;;;;;6360069;28;20446;-69
2022/12/08 08:37:48;;;;;;;1.73;1.73;;;;;;;;;;6362784;28;20432;-69
2022/12/08 08:40:54;;;;;;;1.50;1.50;;;;;;;;;;6365094;28;20286;-69
2022/12/08 08:43:59;;;;;;;1.53;1.50;;;;;;;;;;6364439;28;20306;-69
2022/12/08 08:47:06;;;;;;;2.30;1.53;;;;;;;;;;6364445;28;20270;-70
2022/12/08 08:50:12;;;;;;;1.70;1.50;;;;;;;;;;6364480;28;20271;-70
2022/12/08 08:53:17;;;;;;;1.43;1.43;;;;;;;;;;6364389;28;20299;-69
2022/12/08 08:56:23;;;;;;;1.47;1.30;;;;;;;;;;6365050;28;20271;-69
2022/12/08 08:59:28;;;;;;;1.30;1.30;;;;;;;;;;6363965;28;20299;-69
2022/12/08 09:02:34;;;;;;;1.60;1.50;;;;;;;;;;6364165;28;20290;-69
2022/12/08 09:05:40;;;;;;;1.80;1.50;;;;;;;;;;6364553;28;20267;-69
2022/12/08 09:08:49;;;;;;;1.37;1.30;;;;;;;;;;6364054;28;20285;-69
2022/12/08 09:11:54;;;;;;;3.43;1.80;;;;;;;;;;6364018;28;20264;-69
2022/12/08 09:14:59;;;;;;;1.40;1.40;;;;;;;;;;6363999;28;20300;-69
2022/12/08 09:18:06;;;;;;;3.33;1.60;;;;;;;;;;6363961;28;20463;-68
2022/12/08 09:21:13;;;;;;;1.80;1.70;;;;;;;;;;6364169;28;20470;-69
2022/12/08 09:24:20;;;;;;;4.87;2.03;;;;;;;;;;6345765;28;20295;-68
2022/12/08 09:27:25;;;;;;;10.87;4.30;;;;;;;;;;6363069;28;20291;-69
2022/12/08 09:30:30;;;;;;;4.40;3.63;;;;;;;;;;6363761;28;20274;-69
2022/12/08 09:33:36;;;;;;;3.33;2.87;;;;;;;;;;6363388;28;20307;-69
2022/12/08 09:36:42;;;;;;;2.63;2.37;;;;;;;;;;6363994;28;20266;-69
2022/12/08 09:39:47;;;;;;;2.03;1.93;;;;;;;;;;6363312;28;20290;-69
2022/12/08 09:42:58;;;;;;;2.00;1.90;;;;;;;;;;6362980;28;20293;-70
2022/12/08 09:46:06;;;;;;;1.43;1.40;;;;;;;;;;6363840;28;20270;-69
2022/12/08 09:49:16;;;;;;;1.67;1.67;;;;;;;;;;6362164;28;20315;-69
2022/12/08 09:52:24;;;;;;;1.60;1.60;;;;;;;;;;6345146;28;20270;-69
2022/12/08 09:55:40;;;;;;;1.30;1.30;;;;;;;;;;6363635;28;20275;-69
2022/12/08 09:58:51;;;;;;;1.30;1.30;;;;;;;;;;6363082;28;20600;-69
2022/12/08 10:01:56;;;;;;;1.30;1.30;;;;;;;;;;6363201;28;20283;-69
2022/12/08 10:05:03;;;;;;;46.70;19.43;;;;;;;;;;6362749;28;20311;-70
2022/12/08 10:08:16;;;;;;;13.00;8.77;;;;;;;;;;6352036;28;20292;-69
2022/12/08 10:11:26;;;;;;;3.77;3.07;;;;;;;;;;6345269;28;20299;-69
2022/12/08 10:14:36;;;;;;;2.00;2.00;;;;;;;;;;6362455;28;20293;-69
2022/12/08 10:17:45;;;;;;;1.30;1.30;;;;;;;;;;6362221;28;20323;-69
2022/12/08 10:20:52;;;;;;;1.30;1.30;;;;;;;;;;6362478;28;20286;-70
2022/12/08 10:24:01;;;;;;;1.50;1.20;;;;;;;;;;6362211;28;20591;-70
2022/12/08 10:27:11;;;;;;;1.80;1.30;;;;;;;;;;6361807;28;20272;-69
2022/12/08 10:30:18;;;;;;;1.70;1.23;;;;;;;;;;6362689;28;20271;-68
2022/12/08 10:33:23;;;;;;;1.40;1.30;;;;;;;;;;6361698;28;20599;-69
2022/12/08 10:36:48;;;;;;;3.23;1.60;;;;;;;;;;6362155;28;20564;-69
2022/12/08 10:40:00;;;;;;;1.47;1.40;;;;;;;;;;6361883;28;20294;-69
2022/12/08 10:43:05;;;;;;;1.30;1.30;;;;;;;;;;6361188;28;20291;-69
2022/12/08 10:46:13;;;;;;;1.17;1.17;;;;;;;;;;6362325;28;20263;-70
2022/12/08 10:49:26;;;;;;;1.43;1.40;;;;;;;;;;6361506;28;20295;-69
2022/12/08 10:52:32;;;;;;;1.50;1.40;;;;;;;;;;6361380;28;20296;-69
2022/12/08 10:55:42;;;;;;;1.37;1.37;;;;;;;;;;6362242;28;20263;-69
2022/12/08 10:58:48;;;;;;;2.50;1.20;;;;;;;;;;6361322;28;20473;-69
2022/12/08 11:01:55;;;;;;;3.87;1.50;;;;;;;;;;6361801;28;20286;-69
2022/12/08 11:05:00;;;;;;;3.50;1.50;;;;;;;;;;6361162;28;20457;-69
2022/12/08 11:08:09;;;;;;;1.53;1.50;;;;;;;;;;6327745;28;20293;-69
2022/12/08 11:11:14;;;;;;;1.40;1.40;;;;;;;;;;6362268;28;20299;-69
2022/12/08 11:14:23;;;;;;;1.60;1.60;;;;;;;;;;6361282;28;20296;-69
2022/12/08 11:17:38;;;;;;;1.80;1.70;;;;;;;;;;6361086;28;20292;-69
2022/12/08 11:20:43;;;;;;;1.70;1.70;;;;;;;;;;6361225;28;20581;-70
2022/12/08 11:23:50;;;;;;;1.87;1.80;;;;;;;;;;6342723;28;20344;-69
2022/12/08 11:27:00;;;;;;;3.53;1.80;;;;;;;;;;6361586;28;20268;-69
2022/12/08 11:30:13;;;;;;;2.23;2.10;;;;;;;;;;6360933;28;20564;-70
2022/12/08 11:33:22;;;;;;;3.70;2.20;;;;;;;;;;6361118;28;20601;-69
2022/12/08 11:36:29;;;;;;;4.83;2.13;;;;;;;;;;6360939;28;20277;-70
2022/12/08 11:39:39;;;;;;;2.07;1.87;;;;;;;;;;6360866;28;20481;-70
2022/12/08 11:42:52;;;;;;;1.53;1.53;;;;;;;;;;6359843;28;20296;-69
2022/12/08 11:45:59;;;;;;;1.93;1.93;;;;;;;;;;6361120;28;20335;-70
2022/12/08 11:49:06;;;;;;;1.90;1.83;;;;;;;;;;6360525;28;20288;-69
2022/12/08 11:52:19;;;;;;;2.00;2.00;;;;;;;;;;6360558;28;20307;-69
2022/12/08 11:55:32;;;;;;;2.43;1.73;;;;;;;;;;6360663;28;20268;-70
2022/12/08 11:58:45;;;;;;;2.10;2.00;;;;;;;;;;6360236;28;20312;-68
2022/12/08 12:01:51;;;;;;;2.47;2.30;;;;;;;;;;6360623;28;20481;-69
2022/12/08 12:05:01;;;;;;;2.33;2.23;;;;;;;;;;6360438;28;20295;-69
2022/12/08 12:08:13;;;;;;;2.60;2.40;;;;;;;;;;6350457;28;20289;-69
2022/12/08 12:15:30;;;;;;;2.50;2.37;;;;;;;;;;6317571;28;20301;-70
2022/12/08 12:18:39;;;;;;;3.03;2.50;;;;;;;;;;6365101;28;20296;-69
2022/12/08 12:21:46;;;;;;;3.00;2.80;;;;;;;;;;6365928;28;20293;-70
2022/12/08 12:24:52;;;;;;;4.27;3.17;;;;;;;;;;6365260;28;20487;-69
2022/12/08 12:28:00;;;;;;;2.93;2.73;;;;;;;;;;6346725;28;20308;-70
2022/12/08 12:31:08;;;;;;;2.83;2.73;;;;;;;;;;6365381;28;20275;-70
2022/12/08 12:34:23;;;;;;;3.30;3.00;;;;;;;;;;6364703;28;20295;-70
2022/12/08 12:37:37;;;;;;;3.53;2.47;;;;;;;;;;6364414;28;20287;-70
2022/12/08 12:40:43;;;;;;;3.63;2.73;;;;;;;;;;6365434;28;20264;-70
2022/12/08 12:44:12;;;;;;;2.43;2.33;;;;;;;;;;6364429;28;20296;-69
2022/12/08 12:47:45;;;;;;;3.80;2.30;;;;;;;;;;6364457;28;20267;-69
2022/12/08 12:50:58;;;;;;;2.50;2.40;;;;;;;;;;6365149;28;20273;-70
2022/12/08 12:54:21;;;;;;;8.17;2.50;;;;;;;;;;6364306;28;20312;-69
2022/12/08 12:57:36;;;;;;;2.33;2.03;;;;;;;;;;6364390;28;20292;-69
2022/12/08 13:00:42;;;;;;;2.37;2.20;;;;;;;;;;6364590;28;20268;-68
2022/12/08 13:03:49;;;;;;;2.53;2.40;;;;;;;;;;6363974;28;20378;-68
2022/12/08 13:06:54;;;;;;;2.67;2.37;;;;;;;;;;6364698;28;20272;-68
2022/12/08 13:10:03;;;;;;;4.57;2.00;;;;;;;;;;6363950;28;20300;-69
2022/12/08 13:13:17;;;;;;;2.93;2.20;;;;;;;;;;6363772;28;20288;-69
2022/12/08 13:16:25;;;;;;;2.10;2.10;;;;;;;;;;6364041;28;20273;-69
2022/12/08 13:19:32;;;;;;;2.30;2.10;;;;;;;;;;6364053;28;20588;-69
2022/12/08 13:23:24;;;;;;;4.97;2.10;;;;;;;;;;6362736;28;20308;-69
2022/12/08 13:26:30;;;;;;;2.33;2.23;;;;;;;;;;6329426;28;20275;-69
2022/12/08 13:29:34;;;;;;;2.10;2.10;;;;;;;;;;6363575;28;20294;-68
2022/12/08 13:33:01;;;;;;;3.90;2.70;;;;;;;;;;6363166;28;20293;-69
2022/12/08 13:36:25;;;;;;;2.30;1.90;;;;;;;;;;6363484;28;20264;-69
2022/12/08 13:39:35;;;;;;;2.30;2.20;;;;;;;;;;6363367;28;20297;-70
2022/12/08 13:42:43;;;;;;;3.13;2.37;;;;;;;;;;6363089;28;20292;-69
2022/12/08 13:45:49;;;;;;;5.90;2.37;;;;;;;;;;6363750;28;20268;-69
2022/12/08 13:49:18;;;;;;;2.70;2.40;;;;;;;;;;6363161;28;20294;-69
2022/12/08 13:52:48;;;;;;;4.87;2.33;;;;;;;;;;6362951;28;20295;-69
2022/12/08 13:56:13;;;;;;;7.43;2.60;;;;;;;;;;6363415;28;20272;-69
2022/12/08 13:59:44;;;;;;;6.10;2.53;;;;;;;;;;6363075;28;20287;-69
2022/12/08 14:02:50;;;;;;;5.50;2.70;;;;;;;;;;6363118;28;20299;-69
2022/12/08 14:05:56;;;;;;;6.27;2.70;;;;;;;;;;6363583;28;20264;-69
2022/12/08 14:09:19;;;;;;;3.73;2.20;;;;;;;;;;6361955;28;20583;-69
2022/12/08 14:12:26;;;;;;;2.23;2.13;;;;;;;;;;6362809;28;20296;-69
2022/12/08 14:15:33;;;;;;;4.30;2.13;;;;;;;;;;6362472;28;20266;-69
2022/12/08 14:18:42;;;;;;;3.57;2.23;;;;;;;;;;6362211;28;20489;-68
2022/12/08 14:21:54;;;;;;;3.90;3.40;;;;;;;;;;6362318;28;20275;-68
2022/12/08 14:24:59;;;;;;;2.60;2.47;;;;;;;;;;6362113;28;20299;-69
2022/12/08 14:28:05;;;;;;;2.47;2.27;;;;;;;;;;6361907;28;20584;-70
2022/12/08 14:31:12;;;;;;;2.77;2.60;;;;;;;;;;6362603;28;20279;-69
2022/12/08 14:34:17;;;;;;;3.43;2.87;;;;;;;;;;6361617;28;20308;-69
2022/12/08 14:37:25;;;;;;;4.73;2.27;;;;;;;;;;6361470;28;20298;-69
2022/12/08 14:40:33;;;;;;;3.17;2.47;;;;;;;;;;6362683;28;20267;-70
2022/12/08 14:43:39;;;;;;;8.70;2.80;;;;;;;;;;6361678;28;20311;-68
2022/12/08 14:47:05;;;;;;;3.00;2.47;;;;;;;;;;6362218;28;20268;-69
2022/12/08 14:50:50;;;;;;;3.13;2.90;;;;;;;;;;6360894;28;20276;-69
2022/12/08 14:53:58;;;;;;;7.63;2.90;;;;;;;;;;6355886;28;20300;-68
2022/12/08 14:57:03;;;;;;;2.97;2.50;;;;;;;;;;6361537;28;20263;-69
2022/12/08 15:00:11;;;;;;;2.43;2.33;;;;;;;;;;6361544;28;20571;-69
2022/12/08 15:03:17;;;;;;;2.83;2.73;;;;;;;;;;6361361;28;20303;-69
2022/12/08 15:06:22;;;;;;;2.77;2.57;;;;;;;;;;6361569;28;20457;-69
2022/12/08 15:09:35;;;;;;;4.87;2.37;;;;;;;;;;6361191;28;20302;-69
2022/12/08 15:12:40;;;;;;;2.87;2.70;;;;;;;;;;6335949;28;20288;-69
2022/12/08 15:15:50;;;;;;;3.20;2.90;;;;;;;;;;6336545;28;20279;-68
2022/12/08 15:19:12;;;;;;;2.67;2.57;;;;;;;;;;6335607;28;20229;-68
2022/12/08 15:22:22;;;;;;;2.80;2.60;;;;;;;;;;6335592;28;20274;-69
2022/12/08 15:25:28;;;;;;;2.70;2.53;;;;;;;;;;6336028;28;20497;-69
2022/12/08 15:28:33;;;;;;;4.60;2.70;;;;;;;;;;6335372;28;20304;-69
2022/12/08 15:31:38;;;;;;;3.23;2.97;;;;;;;;;;6336177;28;20458;-69
2022/12/08 15:34:43;;;;;;;5.57;2.97;;;;;;;;;;6351096;28;20308;-70
2022/12/08 15:37:47;;;;;;;5.23;2.90;;;;;;;;;;6335830;28;20292;-69
2022/12/08 15:40:54;;;;;;;2.80;2.70;;;;;;;;;;6336199;28;20267;-69
2022/12/08 15:43:59;;;;;;;2.53;2.33;;;;;;;;;;6335174;28;20319;-69
2022/12/08 15:47:04;;;;;;;2.60;2.40;;;;;;;;;;6350098;28;20456;-70
2022/12/08 15:50:16;;;;;;;4.13;2.40;;;;;;;;;;6335781;28;20274;-69
2022/12/08 15:53:21;;;;;;;3.43;2.30;;;;;;;;;;6335529;28;20296;-69
2022/12/08 15:56:27;;;;;;;2.60;2.50;;;;;;;;;;6336090;28;20273;-69
2022/12/08 15:59:32;;;;;;;2.80;2.53;;;;;;;;;;6335668;28;20299;-69
2022/12/08 16:02:37;;;;;;;2.80;2.50;;;;;;;;;;6334963;28;20372;-70
2022/12/08 16:06:02;;;;;;;2.80;2.23;;;;;;;;;;6335309;28;20287;-69
2022/12/08 16:09:30;;;;;;;2.67;2.43;;;;;;;;;;6334734;28;20584;-70
2022/12/08 16:16:21;;;;;;;2.60;2.50;;;;;;;;;;6335519;28;20271;-70
2022/12/08 16:19:26;;;;;;;2.80;2.70;;;;;;;;;;6317099;28;20296;-70
2022/12/08 16:22:32;;;;;;;2.30;2.20;;;;;;;;;;6334800;28;20297;-70
2022/12/08 16:25:59;;;;;;;2.60;2.40;;;;;;;;;;6335608;28;20295;-70
2022/12/08 16:29:25;;;;;;;3.13;3.00;;;;;;;;;;6335110;28;20295;-69
2022/12/08 16:32:30;;;;;;;3.63;2.77;;;;;;;;;;6334352;28;20308;-68
2022/12/08 16:35:35;;;;;;;3.70;3.40;;;;;;;;;;6317362;28;20280;-69
2022/12/08 16:38:40;;;;;;;6.87;6.37;;;;;;;;;;6335000;28;20600;-69
2022/12/08 16:45:12;;;;;;;3.30;3.00;;;;;;;;;;6334379;28;20283;-69
2022/12/08 16:48:16;;;;;;;3.33;3.03;;;;;;;;;;6316550;28;20292;-69
2022/12/08 16:51:21;;;;;;;3.00;2.90;;;;;;;;;;6335378;28;20404;-69
2022/12/08 16:54:31;;;;;;;3.27;3.03;;;;;;;;;;6334580;28;20311;-70
2022/12/08 16:57:36;;;;;;;3.23;3.13;;;;;;;;;;6335803;28;20362;-70
2022/12/08 17:00:42;;;;;;;3.23;3.10;;;;;;;;;;6339996;28;20294;-69
2022/12/08 17:03:47;;;;;;;3.17;2.87;;;;;;;;;;6325578;28;20292;-69
2022/12/08 17:07:13;;;;;;;3.23;2.87;;;;;;;;;;6338450;28;20573;-69
2022/12/08 17:10:20;;;;;;;4.30;3.23;;;;;;;;;;6338687;28;20292;-70
2022/12/08 17:13:25;;;;;;;3.07;2.80;;;;;;;;;;6339054;28;20297;-69
2022/12/08 17:16:31;;;;;;;3.33;3.10;;;;;;;;;;6339017;28;20288;-69
2022/12/08 17:19:36;;;;;;;3.20;2.97;;;;;;;;;;6338543;28;20296;-70
2022/12/08 17:22:41;;;;;;;3.93;3.60;;;;;;;;;;6338544;28;20288;-70
2022/12/08 17:25:56;;;;;;;3.63;3.47;;;;;;;;;;6339027;28;20298;-69
2022/12/08 17:29:02;;;;;;;5.13;3.57;;;;;;;;;;6338249;28;20297;-69
2022/12/08 17:32:08;;;;;;;8.03;6.03;;;;;;;;;;6338506;28;20277;-70
2022/12/08 17:35:14;;;;;;;4.00;3.70;;;;;;;;;;6338403;28;20277;-69
2022/12/08 17:38:20;;;;;;;5.73;3.90;;;;;;;;;;6338004;28;20291;-68
2022/12/08 17:41:25;;;;;;;4.87;4.07;;;;;;;;;;6338247;28;20268;-68
2022/12/08 17:44:30;;;;;;;4.07;3.83;;;;;;;;;;6337549;28;20296;-69
2022/12/08 17:47:37;;;;;;;8.10;4.60;;;;;;;;;;6337875;28;20287;-69
2022/12/08 17:50:44;;;;;;;5.10;4.60;;;;;;;;;;6338018;28;20265;-71
2022/12/08 17:53:50;;;;;;;9.17;5.03;;;;;;;;;;6337914;28;20291;-71
2022/12/08 17:56:57;;;;;;;11.43;5.30;;;;;;;;;;6338333;28;20296;-71
2022/12/08 18:00:03;;;;;;;7.67;4.90;;;;;;;;;;6337618;28;20300;-69
2022/12/08 18:03:16;;;;;;;6.83;5.27;;;;;;;;;;6337291;28;20295;-70
2022/12/08 18:06:21;;;;;;;8.23;5.13;;;;;;;;;;6337521;28;20279;-70
2022/12/08 18:09:33;;;;;;;5.57;5.03;;;;;;;;;;6337190;28;20298;-70
2022/12/08 18:12:38;;;;;;;5.37;4.77;;;;;;;;;;6362586;28;20287;-70
2022/12/08 18:15:43;;;;;;;4.60;4.23;;;;;;;;;;6362791;28;20274;-69
2022/12/08 18:18:50;;;;;;;4.50;4.20;;;;;;;;;;6362180;28;20454;-69
2022/12/08 18:21:55;;;;;;;4.47;4.07;;;;;;;;;;6362773;28;20268;-69
2022/12/08 18:25:00;;;;;;;8.10;4.40;;;;;;;;;;6362235;28;20294;-70
2022/12/08 18:28:05;;;;;;;5.73;4.37;;;;;;;;;;6362219;28;20287;-70
2022/12/08 18:31:12;;;;;;;4.80;4.33;;;;;;;;;;6363097;28;20463;-70
2022/12/08 18:34:18;;;;;;;6.83;4.37;;;;;;;;;;6362144;28;20306;-71
2022/12/08 18:37:24;;;;;;;5.17;4.23;;;;;;;;;;6361815;28;20451;-70
2022/12/08 18:40:29;;;;;;;5.80;4.13;;;;;;;;;;6361820;28;20268;-69
2022/12/08 18:43:34;;;;;;;4.33;4.13;;;;;;;;;;6362186;28;20291;-69
2022/12/08 18:46:38;;;;;;;6.23;3.90;;;;;;;;;;6362257;28;20294;-69
2022/12/08 18:49:45;;;;;;;4.73;3.97;;;;;;;;;;6361629;28;20598;-68
2022/12/08 18:52:50;;;;;;;4.00;3.80;;;;;;;;;;6361568;28;20492;-71
2022/12/08 18:55:55;;;;;;;4.73;4.20;;;;;;;;;;6362188;28;20428;-69
2022/12/08 18:59:01;;;;;;;13.87;5.00;;;;;;;;;;6343424;28;20481;-68
2022/12/08 19:02:08;;;;;;;9.57;5.47;;;;;;;;;;6360928;28;20267;-69
2022/12/08 19:05:15;;;;;;;11.03;5.63;;;;;;;;;;6361651;28;20550;-68